»·PEaware :: N123RG KLAX-KSBA

N123RG :: KLAX-KSBA

FLIGHT INFORMATION

Flight Status: Arrived
Operator: Privately registered:
United States
More flights under this callsign
Pilot: Anonymous 23223 (23223)
Aircraft: CESSNA 172 SKYHAWK
(C172)
More flights by this aircraft type
Origin: KLAX Los Angeles Intl
United States
Destination: KSBA Santa Barbara Mun
United States
More flights between these airports :: More routes between these airports
Route: +VTU8 VTU VTU282 KWANG
File this flight plan on PilotEdge
Remarks:
Altitude:
(Current/Filed)
10,000ft
Speed:
(Current/Filed)
135kts
Departed: 07-Feb-19 02:27 PM
Arrived: 07-Feb-19 03:18 PM
Distance/Time
Traveled:
77nm/0:50
Distance/Time
To Go:
Arrived

Flight Plot

Page will automatically refresh every two minutes.

Flight plan parsing failed; only flown route is shown


Map Options




Map Legend


Flown Route
Filed Route
Departure Airport
Arrival Airport
Navaid (VOR, NDB)
Fix

Horizontal Profiles

Position Reports

Time Latitude Longitude Heading Altitude Ground
Speed
07-Feb-19 13:59 33.933734 -118.393107 301 129ft 0kts
07-Feb-19 14:00 33.933734 -118.393107 302 129ft 0kts
07-Feb-19 14:01 33.933734 -118.393108 302 129ft 0kts
07-Feb-19 14:02 33.933734 -118.393108 302 129ft 0kts
07-Feb-19 14:03 33.933735 -118.393109 302 129ft 0kts
07-Feb-19 14:04 33.933735 -118.393110 302 129ft 0kts
07-Feb-19 14:05 33.933735 -118.393110 302 129ft 0kts
07-Feb-19 14:06 33.933736 -118.393111 302 129ft 0kts
07-Feb-19 14:07 33.933736 -118.393112 302 129ft 0kts
07-Feb-19 14:08 33.933736 -118.393112 302 129ft 0kts
07-Feb-19 14:09 33.933737 -118.393113 302 129ft 0kts
07-Feb-19 14:10 33.933737 -118.393113 302 129ft 0kts
07-Feb-19 14:11 33.933737 -118.393114 302 129ft 0kts
07-Feb-19 14:12 33.933738 -118.393114 302 129ft 0kts
07-Feb-19 14:13 33.933738 -118.393115 302 129ft 0kts
07-Feb-19 14:14 33.933738 -118.393116 302 129ft 0kts
07-Feb-19 14:15 33.933738 -118.393116 302 129ft 0kts
07-Feb-19 14:16 33.933739 -118.393117 302 129ft 0kts
07-Feb-19 14:17 33.933739 -118.393117 302 129ft 0kts
07-Feb-19 14:18 33.933741 -118.393120 302 129ft 0kts
07-Feb-19 14:19 33.933741 -118.393121 302 129ft 0kts
07-Feb-19 14:20 33.935125 -118.393361 327 129ft 10kts
07-Feb-19 14:21 33.935203 -118.392432 76 129ft 15kts
07-Feb-19 14:22 33.935680 -118.387674 82 129ft 9kts
07-Feb-19 14:23 33.936136 -118.383352 82 129ft 9kts
07-Feb-19 14:24 33.936565 -118.382916 358 129ft 0kts
07-Feb-19 14:25 33.937043 -118.382995 348 129ft 13kts
07-Feb-19 14:26 33.935238 -118.404873 265 651ft 104kts
07-Feb-19 14:27 33.931624 -118.438592 264 1994ft 98kts
07-Feb-19 14:28 33.940690 -118.468962 265 2901ft 115kts
07-Feb-19 14:29 33.933407 -118.504982 261 3781ft 110kts
07-Feb-19 14:30 33.930631 -118.541741 288 4483ft 105kts
07-Feb-19 14:31 33.941589 -118.573009 292 5256ft 97kts
07-Feb-19 14:32 33.950978 -118.602664 291 5964ft 99kts
07-Feb-19 14:33 33.963906 -118.639342 293 5999ft 131kts
07-Feb-19 14:34 33.978494 -118.680636 293 5997ft 134kts
07-Feb-19 14:35 33.993197 -118.722522 293 5994ft 136kts
07-Feb-19 14:36 34.007931 -118.764571 293 5993ft 136kts
07-Feb-19 14:37 34.022700 -118.806793 293 5994ft 136kts
07-Feb-19 14:38 34.037388 -118.848831 292 5990ft 136kts
07-Feb-19 14:39 34.053656 -118.895131 292 5971ft 142kts
07-Feb-19 14:40 34.068413 -118.937868 292 5993ft 136kts
07-Feb-19 14:41 34.083036 -118.979955 292 5992ft 136kts
07-Feb-19 14:42 34.097647 -119.022022 292 5993ft 136kts
07-Feb-19 14:43 34.112224 -119.064141 291 5991ft 136kts
07-Feb-19 14:44 34.123301 -119.107770 287 5993ft 136kts
07-Feb-19 14:45 34.134607 -119.151408 287 5992ft 135kts
07-Feb-19 14:46 34.145928 -119.194905 287 5994ft 136kts
07-Feb-19 14:47 34.157268 -119.238511 287 5994ft 136kts
07-Feb-19 14:48 34.168596 -119.282137 287 5994ft 136kts
07-Feb-19 14:49 34.179906 -119.325766 287 5993ft 136kts
07-Feb-19 14:50 34.191193 -119.369383 287 5993ft 136kts
07-Feb-19 14:51 34.202510 -119.413187 287 5994ft 136kts
07-Feb-19 14:52 34.213768 -119.456828 287 5993ft 136kts
07-Feb-19 14:53 34.225055 -119.500455 288 5993ft 136kts
07-Feb-19 14:54 34.233713 -119.544701 278 5994ft 136kts
07-Feb-19 14:55 34.238430 -119.590145 278 5994ft 135kts
07-Feb-19 14:56 34.243122 -119.635372 278 5994ft 136kts
07-Feb-19 14:57 34.249998 -119.680370 282 5992ft 136kts
07-Feb-19 14:58 34.257562 -119.725079 282 5991ft 135kts
07-Feb-19 14:59 34.264784 -119.768274 282 5990ft 128kts
07-Feb-19 15:00 34.271759 -119.810096 282 5992ft 126kts
07-Feb-19 15:01 34.278702 -119.851740 282 5993ft 126kts
07-Feb-19 15:02 34.285602 -119.893142 282 5989ft 121kts
07-Feb-19 15:03 34.293651 -119.935862 286 5300ft 141kts
07-Feb-19 15:04 34.312564 -119.976890 286 4439ft 144kts
07-Feb-19 15:05 34.323573 -120.023632 286 3605ft 142kts
07-Feb-19 15:06 34.332875 -120.063514 286 3483ft 109kts
07-Feb-19 15:07 34.356884 -120.077422 353 3495ft 111kts
07-Feb-19 15:08 34.388676 -120.079256 353 3154ft 116kts
07-Feb-19 15:09 34.420376 -120.076956 48 2444ft 125kts
07-Feb-19 15:10 34.425913 -120.035939 92 1981ft 117kts
07-Feb-19 15:11 34.424356 -120.000226 89 1985ft 98kts
07-Feb-19 15:12 34.424947 -119.968271 91 1897ft 98kts
07-Feb-19 15:13 34.424026 -119.931959 89 1457ft 118kts
07-Feb-19 15:14 34.426026 -119.897372 87 743ft 93kts
07-Feb-19 15:15 34.426990 -119.868063 85 268ft 82kts
07-Feb-19 15:16 34.427735 -119.843170 88 13ft 46kts
07-Feb-19 15:17 34.428051 -119.840956 30 13ft 0kts
07-Feb-19 15:18 34.428052 -119.840955 30 13ft 0kts
07-Feb-19 15:19 34.431496 -119.837475 54 13ft 27kts
07-Feb-19 15:20 34.432066 -119.836802 140 13ft 0kts
07-Feb-19 15:21 34.432066 -119.836802 140 13ft 0kts

Navigation Log

Ident Type
Flight plan parsing failed, navigation log unavailable